Flight Track Log - Related Links

Times and Time Zones

All times are in EDT time to prevent confusion due to time zone crossing. See the N3TN flight status page for this flight to view local times or setup timezone preferences in your user account.

Time Position Orientation Groundspeed Altitude Reporting Facility
EDT Latitude Longitude Course Direction KTS MPH feet Rate Location/Type
Mon 02:27:00 PM 44.0651 -69.2016 274° West  Level FlightAware Approximate
Mon 02:28:00 PM 44.0668 -69.2358 274° West  Level FlightAware Approximate
Mon 02:29:00 PM 44.0667 -69.2526 270° West  Level FlightAware Approximate
Mon 02:30:00 PM 44.0677 -69.2865 295° West  Level FlightAware Approximate
Mon 02:31:00 PM 44.0780 -69.3175 295° West  Level FlightAware Approximate
Mon 02:32:00 PM 44.0833 -69.3501 270° West  Level FlightAware Approximate
Mon 02:33:00 PM 44.0833 -69.3843 270° West  Level FlightAware Approximate
Mon 02:34:00 PM 44.0889 -69.4168 295° West  Level FlightAware Approximate
Mon 02:35:00 PM 44.0993 -69.4478 295° West  Level FlightAware Approximate
Mon 02:36:00 PM 44.1000 -69.4818 270° West  Level FlightAware Approximate
Mon 02:37:00 PM 44.1019 -69.5158 279° West  Level FlightAware Approximate
Mon 02:38:00 PM 44.1059 -69.5496 279° West  Level FlightAware Approximate
Mon 02:39:00 PM 44.1099 -69.5834 279° West  Level FlightAware Approximate
Mon 02:40:00 PM 44.1138 -69.6172 279° West  Level FlightAware Approximate
Mon 02:41:00 PM 44.1178 -69.6510 279° West  Level FlightAware Approximate
Mon 02:42:00 PM 44.1218 -69.6848 279° West  Level FlightAware Approximate
Mon 02:43:00 PM 44.1257 -69.7186 279° West  Level FlightAware Approximate
Mon 02:44:00 PM 44.1297 -69.7523 279° West  Level FlightAware Approximate
Mon 02:45:00 PM 44.1336 -69.7861 279° West  Level FlightAware Approximate
Mon 02:46:00 PM 44.1375 -69.8200 279° West  Level FlightAware Approximate
Mon 02:47:00 PM 44.1414 -69.8538 279° West  Level FlightAware Approximate
Mon 02:48:00 PM 44.1453 -69.8876 279° West  Level FlightAware Approximate
Mon 02:49:00 PM 44.1492 -69.9214 279° West  Level FlightAware Approximate
Mon 02:50:00 PM 44.1531 -69.9552 279° West  Level FlightAware Approximate
Mon 02:51:00 PM 44.1569 -69.9891 279° West  Level FlightAware Approximate
Mon 02:52:00 PM 44.1608 -70.0229 279° West  Level FlightAware Approximate
Mon 02:53:00 PM 44.1646 -70.0567 279° West  Level FlightAware Approximate
Mon 02:54:00 PM 44.1685 -70.0906 279° West  Level FlightAware Approximate
Mon 02:55:00 PM 44.1723 -70.1244 279° West  Level FlightAware Approximate
Mon 02:56:00 PM 44.1761 -70.1583 279° West  Level FlightAware Approximate
Mon 02:57:00 PM 44.1799 -70.1921 279° West  Level FlightAware Approximate
Mon 02:58:00 PM 44.1837 -70.2260 279° West  Level FlightAware Approximate
Mon 02:59:00 PM 44.1875 -70.2599 279° West  Level FlightAware Approximate
Mon 03:00:00 PM 44.1913 -70.2937 279° West  Level FlightAware Approximate
Mon 03:01:00 PM 44.1950 -70.3276 279° West  Level FlightAware Approximate
Mon 03:02:00 PM 44.1988 -70.3615 279° West  Level FlightAware Approximate
Mon 03:03:00 PM 44.2025 -70.3954 279° West  Level FlightAware Approximate
Mon 03:04:00 PM 44.2063 -70.4293 279° West  Level FlightAware Approximate
Mon 03:05:00 PM 44.2100 -70.4632 279° West  Level FlightAware Approximate
Mon 03:06:00 PM 44.2137 -70.4971 279° West  Level FlightAware Approximate
Mon 03:07:00 PM 44.2174 -70.5310 279° West  Level FlightAware Approximate
Mon 03:07:02 PM 44.2394 -70.6725 279° West 110 127 8,100  Level Boston Center
Mon 03:08:00 PM 44.2211 -70.5649 279° West  Level FlightAware Approximate
Mon 03:08:02 PM 44.2419 -70.7072 276° West 97 112 8,300  Level Boston Center
Mon 03:09:00 PM 44.2248 -70.5988 279° West  Level FlightAware Approximate
Mon 03:09:02 PM 44.2467 -70.7417 281° West 97 112 8,500  Level Boston Center
Mon 03:10:00 PM 44.2285 -70.6327 279° West  Level FlightAware Approximate
Mon 03:10:02 PM 44.2514 -70.7822 279° West 103 119 8,600  Level Boston Center
Mon 03:11:00 PM 44.2321 -70.6666 279° West  Level FlightAware Approximate
Mon 03:11:14 PM 44.2542 -70.8169 276° West 103 119 8,600  Level Boston Center
Mon 03:12:00 PM 44.2363 -70.7048 279° West  Level FlightAware Approximate
Mon 03:12:14 PM 44.2569 -70.8692 274° West 103 119 8,600  Level Boston Center
Mon 03:13:14 PM 44.2572 -70.8981 271° West 103 119 8,600  Level Boston Center
Mon 03:14:14 PM 44.2600 -70.9472 275° West 103 119 8,600  Level Boston Center
Mon 03:15:14 PM 44.2625 -70.9847 275° West 108 124 8,600  Level Boston Center
Mon 03:16:14 PM 44.2631 -71.0256 271° West 108 124 8,600  Level Boston Center
Mon 03:17:14 PM 44.2636 -71.0689 271° West 103 119 8,600  Level Boston Center
Mon 03:18:14 PM 44.2661 -71.1153 274° West 103 119 8,600  Level Boston Center
Mon 03:19:14 PM 44.2686 -71.1500 276° West 103 119 8,600  Level Boston Center
Mon 03:20:14 PM 44.2733 -71.1875 280° West 103 119 8,600  Level Boston Center
Mon 03:21:15 PM 44.2758 -71.2367 274° West 108 124 8,600  Level Boston Center
Mon 03:22:14 PM 44.2742 -71.2775 267° West 108 124 8,600 -50 Level Boston Center
Mon 03:23:14 PM 44.2725 -71.3208 267° West 113 130 8,500 -50 Descending Boston Center
Mon 03:24:14 PM 44.2708 -71.3617 267° West 113 130 8,500  Level Boston Center
Mon 03:25:14 PM 44.2756 -71.4050 279° West 113 130 8,500  Level Boston Center
Mon 03:26:14 PM 44.2883 -71.4453 294° West 113 130 8,500  Level Boston Center
Mon 03:27:14 PM 44.2928 -71.4858 279° West 113 130 8,500  Level Boston Center
Mon 03:28:14 PM 44.3014 -71.5233 288° West 113 130 8,500 -100 Level Boston Center
Mon 03:29:14 PM 44.3100 -71.5669 285° West 113 130 8,300 -200 Descending Boston Center
Mon 03:30:14 PM 44.3231 -71.6103 293° West 113 130 8,100 -150 Descending Boston Center
Mon 03:31:14 PM 44.3317 -71.6508 287° West 113 130 8,000 -50 Descending Boston Center
Mon 03:32:14 PM 44.3422 -71.6797 297° West 113 130 8,000  Level Boston Center
Mon 03:33:14 PM 44.3486 -71.7317 280° West 107 123 8,000  Level Boston Center
Mon 03:34:14 PM 44.3553 -71.7722 283° West 107 123 8,000  Level Boston Center
Mon 03:35:14 PM 44.3617 -71.8128 282° West 107 123 8,000  Level Boston Center
Mon 03:36:14 PM 44.3661 -71.8536 279° West 107 123 8,000  Level Boston Center
Mon 03:37:14 PM 44.3725 -71.8969 282° West 107 123 8,000 50 Level Boston Center
Mon 03:38:14 PM 44.3728 -71.9378 271° West 102 117 8,100  Climbing Boston Center
Mon 03:39:14 PM 44.3750 -71.9783 274° West 102 117 8,000  Descending Boston Center
Mon 03:40:14 PM 44.3814 -72.0189 282° West 107 123 8,100 50 Climbing Boston Center
Mon 03:41:14 PM 44.3858 -72.0625 278° West 107 123 8,100 -50 Level Boston Center
Mon 03:42:14 PM 44.3922 -72.1031 282° West 107 123 8,000  Descending Boston Center
Mon 03:43:14 PM 44.4006 -72.1436 286° West 107 123 8,100 50 Climbing Boston Center
Mon 03:44:14 PM 44.3986 -72.1872 266° West 107 123 8,100  Level Boston Center
Mon 03:45:26 PM 44.3986 -72.2281 270° West 102 117 8,100  Level Boston Center
Mon 03:46:26 PM 44.4008 -72.2775 274° West 102 117 8,100 -50 Level Boston Center
Mon 03:47:26 PM 44.4008 -72.3208 270° West 102 117 8,000 -100 Descending Boston Center
Mon 03:48:26 PM 44.3989 -72.3617 266° West 102 117 7,900 -150 Descending Boston Center
Mon 03:49:26 PM 44.4008 -72.4081 273° West 107 123 7,700 -300 Descending Boston Center
Mon 03:50:26 PM 44.3989 -72.4517 266° West 112 129 7,300 -250 Descending Boston Center
Mon 03:51:26 PM 44.3989 -72.4953 270° West 112 129 7,200 -100 Descending Boston Center
Mon 03:52:26 PM 44.4008 -72.5331 274° West 112 129 7,100 -100 Descending Boston Center
Mon 03:53:26 PM 44.4008 -72.5767 270° West 112 129 7,000  Descending Boston Center
Mon 03:54:26 PM 44.3986 -72.6144 265° West 117 135 7,100  Climbing Boston Center
Mon 03:55:26 PM 44.3967 -72.6581 266° West 112 129 7,000 -50 Descending Boston Center
Mon 03:56:26 PM 44.3944 -72.6986 266° West 112 129 7,000 50 Level Boston Center
Mon 03:57:26 PM 44.3942 -72.7394 269° West 107 123 7,100 -100 Climbing Boston Center
Mon 03:58:26 PM 44.3964 -72.7800 274° West 107 123 6,800 -400 Descending Boston Center
Mon 03:59:26 PM 44.3981 -72.8294 273° West 107 123 6,300 -500 Descending Boston Center
Mon 04:00:26 PM 44.4042 -72.8731 281° West 112 129 5,800 -550 Descending Boston Center
Mon 04:01:26 PM 44.4228 -72.9139 303° West 118 136 5,200 -500 Descending Boston Center
Mon 04:02:26 PM 44.4394 -72.9517 302° West 118 136 4,800 -600 Descending Boston Center
Mon 04:03:26 PM 44.4558 -72.9928 299° West 118 136 4,000 -550 Descending Boston Center
Mon 04:04:26 PM 44.4828 -73.0161 328° Northwest 118 136 3,700 -300 Descending Boston Center
Mon 04:05:26 PM 44.5056 -73.0425 320° Northwest 113 130 3,400 -300 Descending Boston Center
Mon 04:07:00 PM 44.4698 -73.0789 216° Southwest  Level FlightAware Approximate
Mon 04:14:00 PM 44.4667 -73.1500 10° North  Level FlightAware Approximate
Mon 04:15:00 PM 44.4719 -73.1533 10° North  Level Estimated
Mon 04:16:00 PM 44.4667 -73.1500 10° North  Level FlightAware Approximate
Mon 04:17:00 PM 44.4719 -73.1533 10° North  Level Estimated

Login

Don't have an account? Register now (free) for customized features, flight alerts, and more!